sensor_id;sensor_type;location;lat;lon;timestamp;pressure;altitude;pressure_sealevel;temperature;humidity
13732;BME280;6937;56.096;12.664;2022-10-13T00:02:07;102399.72;;;12.88;100.00
13732;BME280;6937;56.096;12.664;2022-10-13T00:04:32;102416.25;;;12.96;100.00
13732;BME280;6937;56.096;12.664;2022-10-13T00:06:57;102378.94;;;12.91;100.00
13732;BME280;6937;56.096;12.664;2022-10-13T00:09:23;102242.72;;;12.34;100.00
13732;BME280;6937;56.096;12.664;2022-10-13T00:11:48;102261.84;;;12.43;100.00
13732;BME280;6937;56.096;12.664;2022-10-13T00:14:13;102279.31;;;12.82;100.00
13732;BME280;6937;56.096;12.664;2022-10-13T00:16:39;102265.03;;;12.81;100.00
13732;BME280;6937;56.096;12.664;2022-10-13T00:19:04;102234.66;;;12.81;100.00
13732;BME280;6937;56.096;12.664;2022-10-13T00:21:29;102187.75;;;12.72;100.00
13732;BME280;6937;56.096;12.664;2022-10-13T00:23:55;102187.41;;;12.78;100.00
13732;BME280;6937;56.096;12.664;2022-10-13T00:26:23;102056.53;;;12.24;100.00
13732;BME280;6937;56.096;12.664;2022-10-13T00:28:49;102111.94;;;12.69;100.00
13732;BME280;6937;56.096;12.664;2022-10-13T00:31:20;102077.53;;;12.61;100.00
13732;BME280;6937;56.096;12.664;2022-10-13T00:33:45;102051.50;;;12.63;100.00
13732;BME280;6937;56.096;12.664;2022-10-13T00:36:11;102036.94;;;12.67;100.00
13732;BME280;6937;56.096;12.664;2022-10-13T00:38:37;102054.47;;;12.73;100.00
13732;BME280;6937;56.096;12.664;2022-10-13T00:41:03;102016.16;;;12.71;100.00
13732;BME280;6937;56.096;12.664;2022-10-13T00:46:17;101980.78;;;12.64;100.00
13732;BME280;6937;56.096;12.664;2022-10-13T00:48:43;101901.94;;;12.24;100.00
13732;BME280;6937;56.096;12.664;2022-10-13T00:51:10;102003.59;;;12.71;100.00
13732;BME280;6937;56.096;12.664;2022-10-13T00:53:37;101993.72;;;12.72;100.00
13732;BME280;6937;56.096;12.664;2022-10-13T00:56:05;101944.97;;;12.65;100.00
13732;BME280;6937;56.096;12.664;2022-10-13T00:58:34;101855.38;;;12.11;100.00
13732;BME280;6937;56.096;12.664;2022-10-13T01:01:03;101913.34;;;12.56;100.00
13732;BME280;6937;56.096;12.664;2022-10-13T01:03:29;101935.50;;;12.59;100.00
13732;BME280;6937;56.096;12.664;2022-10-13T01:05:57;101904.75;;;12.51;100.00
13732;BME280;6937;56.096;12.664;2022-10-13T01:08:23;101932.50;;;12.64;100.00
13732;BME280;6937;56.096;12.664;2022-10-13T01:11:10;101889.19;;;12.56;100.00
13732;BME280;6937;56.096;12.664;2022-10-13T01:13:49;101881.94;;;12.44;100.00
13732;BME280;6937;56.096;12.664;2022-10-13T01:19:14;101881.34;;;12.53;100.00
13732;BME280;6937;56.096;12.664;2022-10-13T01:27:43;101758.63;;;11.87;100.00
13732;BME280;6937;56.096;12.664;2022-10-13T01:30:20;101809.53;;;12.01;100.00
13732;BME280;6937;56.096;12.664;2022-10-13T01:40:51;101901.47;;;12.32;100.00
13732;BME280;6937;56.096;12.664;2022-10-13T01:43:28;101933.25;;;12.38;100.00
13732;BME280;6937;56.096;12.664;2022-10-13T01:46:00;101944.94;;;12.37;100.00
13732;BME280;6937;56.096;12.664;2022-10-13T01:48:28;101885.47;;;12.16;100.00
13732;BME280;6937;56.096;12.664;2022-10-13T01:50:56;101919.63;;;12.27;100.00
13732;BME280;6937;56.096;12.664;2022-10-13T01:53:23;101844.66;;;12.11;100.00
13732;BME280;6937;56.096;12.664;2022-10-13T01:55:55;101844.59;;;12.13;100.00
13732;BME280;6937;56.096;12.664;2022-10-13T01:58:21;101836.25;;;12.17;100.00
13732;BME280;6937;56.096;12.664;2022-10-13T02:03:28;101696.03;;;11.60;100.00
13732;BME280;6937;56.096;12.664;2022-10-13T02:06:51;101687.13;;;11.59;100.00
13732;BME280;6937;56.096;12.664;2022-10-13T02:11:50;101677.09;;;11.63;100.00
13732;BME280;6937;56.096;12.664;2022-10-13T02:14:23;101644.41;;;11.58;100.00
13732;BME280;6937;56.096;12.664;2022-10-13T02:16:52;101626.50;;;11.44;100.00
13732;BME280;6937;56.096;12.664;2022-10-13T02:19:20;101704.19;;;11.87;100.00
13732;BME280;6937;56.096;12.664;2022-10-13T02:21:46;101696.91;;;11.75;100.00
13732;BME280;6937;56.096;12.664;2022-10-13T02:24:12;101758.06;;;11.96;100.00
13732;BME280;6937;56.096;12.664;2022-10-13T02:26:38;101715.78;;;11.87;100.00
13732;BME280;6937;56.096;12.664;2022-10-13T02:29:09;101713.47;;;11.81;100.00
13732;BME280;6937;56.096;12.664;2022-10-13T02:31:36;101649.25;;;11.37;100.00
13732;BME280;6937;56.096;12.664;2022-10-13T02:34:02;101765.22;;;11.82;100.00
13732;BME280;6937;56.096;12.664;2022-10-13T02:36:27;101680.78;;;11.32;100.00
13732;BME280;6937;56.096;12.664;2022-10-13T02:38:52;101782.94;;;11.84;100.00
13732;BME280;6937;56.096;12.664;2022-10-13T02:41:18;101834.41;;;11.89;100.00
13732;BME280;6937;56.096;12.664;2022-10-13T02:43:43;101810.91;;;11.64;100.00
13732;BME280;6937;56.096;12.664;2022-10-13T02:46:08;101848.38;;;11.80;100.00
13732;BME280;6937;56.096;12.664;2022-10-13T02:48:34;101881.00;;;11.87;100.00
13732;BME280;6937;56.096;12.664;2022-10-13T02:50:59;101930.66;;;11.92;100.00
13732;BME280;6937;56.096;12.664;2022-10-13T02:53:24;101908.44;;;11.76;100.00
13732;BME280;6937;56.096;12.664;2022-10-13T02:55:50;101932.16;;;11.82;100.00
13732;BME280;6937;56.096;12.664;2022-10-13T02:58:15;101974.69;;;11.88;100.00
13732;BME280;6937;56.096;12.664;2022-10-13T03:00:41;101979.19;;;11.88;100.00
13732;BME280;6937;56.096;12.664;2022-10-13T03:03:06;102003.28;;;11.88;100.00
13732;BME280;6937;56.096;12.664;2022-10-13T03:05:31;101950.41;;;11.44;100.00
13732;BME280;6937;56.096;12.664;2022-10-13T03:07:57;102030.84;;;11.90;100.00
13732;BME280;6937;56.096;12.664;2022-10-13T03:10:22;101961.91;;;11.46;100.00
13732;BME280;6937;56.096;12.664;2022-10-13T03:12:47;102033.53;;;11.74;100.00
13732;BME280;6937;56.096;12.664;2022-10-13T03:15:13;102058.00;;;11.84;100.00
13732;BME280;6937;56.096;12.664;2022-10-13T03:17:38;102085.53;;;11.86;100.00
13732;BME280;6937;56.096;12.664;2022-10-13T03:20:04;101981.28;;;11.36;100.00
13732;BME280;6937;56.096;12.664;2022-10-13T03:22:31;102072.94;;;11.88;100.00
13732;BME280;6937;56.096;12.664;2022-10-13T03:24:56;102073.09;;;11.69;100.00
13732;BME280;6937;56.096;12.664;2022-10-13T03:27:22;102088.16;;;11.87;100.00
13732;BME280;6937;56.096;12.664;2022-10-13T03:29:47;102094.81;;;11.80;100.00
13732;BME280;6937;56.096;12.664;2022-10-13T03:32:12;102061.88;;;11.78;100.00
13732;BME280;6937;56.096;12.664;2022-10-13T03:34:38;102007.84;;;11.39;100.00
13732;BME280;6937;56.096;12.664;2022-10-13T03:37:03;102057.00;;;11.69;100.00
13732;BME280;6937;56.096;12.664;2022-10-13T03:39:29;102003.44;;;11.38;100.00
13732;BME280;6937;56.096;12.664;2022-10-13T03:41:54;102083.97;;;11.82;100.00
13732;BME280;6937;56.096;12.664;2022-10-13T03:44:19;102074.31;;;11.79;100.00
13732;BME280;6937;56.096;12.664;2022-10-13T03:46:45;102015.88;;;11.70;100.00
13732;BME280;6937;56.096;12.664;2022-10-13T03:49:11;101972.44;;;11.65;100.00
13732;BME280;6937;56.096;12.664;2022-10-13T03:51:37;101952.03;;;11.62;100.00
13732;BME280;6937;56.096;12.664;2022-10-13T03:54:02;101951.53;;;11.56;100.00
13732;BME280;6937;56.096;12.664;2022-10-13T03:56:28;101910.44;;;11.57;100.00
13732;BME280;6937;56.096;12.664;2022-10-13T03:58:58;101863.53;;;11.50;100.00
13732;BME280;6937;56.096;12.664;2022-10-13T04:01:27;101833.06;;;11.37;100.00
13732;BME280;6937;56.096;12.664;2022-10-13T04:03:54;101846.00;;;11.44;100.00
13732;BME280;6937;56.096;12.664;2022-10-13T04:06:20;101839.97;;;11.41;100.00
13732;BME280;6937;56.096;12.664;2022-10-13T04:08:45;101810.53;;;11.41;100.00
13732;BME280;6937;56.096;12.664;2022-10-13T04:11:12;101803.63;;;11.37;100.00
13732;BME280;6937;56.096;12.664;2022-10-13T04:13:39;101751.22;;;11.03;100.00
13732;BME280;6937;56.096;12.664;2022-10-13T04:16:07;101810.03;;;11.34;100.00
13732;BME280;6937;56.096;12.664;2022-10-13T04:18:33;101791.13;;;11.37;100.00
13732;BME280;6937;56.096;12.664;2022-10-13T04:20:59;101795.41;;;11.40;100.00
13732;BME280;6937;56.096;12.664;2022-10-13T04:23:24;101749.19;;;11.22;100.00
13732;BME280;6937;56.096;12.664;2022-10-13T04:25:50;101737.81;;;11.19;100.00
13732;BME280;6937;56.096;12.664;2022-10-13T04:28:16;101679.22;;;10.84;100.00
13732;BME280;6937;56.096;12.664;2022-10-13T04:30:41;101761.94;;;11.33;100.00
13732;BME280;6937;56.096;12.664;2022-10-13T04:33:07;101760.06;;;11.35;100.00
13732;BME280;6937;56.096;12.664;2022-10-13T04:35:33;101742.44;;;11.31;100.00
13732;BME280;6937;56.096;12.664;2022-10-13T04:37:58;101747.69;;;11.32;100.00
13732;BME280;6937;56.096;12.664;2022-10-13T04:40:25;101725.03;;;11.24;100.00
13732;BME280;6937;56.096;12.664;2022-10-13T04:42:50;101710.13;;;11.20;100.00
13732;BME280;6937;56.096;12.664;2022-10-13T04:45:16;101713.97;;;11.30;100.00
13732;BME280;6937;56.096;12.664;2022-10-13T04:47:42;101695.78;;;11.21;100.00
13732;BME280;6937;56.096;12.664;2022-10-13T04:50:07;101613.50;;;10.80;100.00
13732;BME280;6937;56.096;12.664;2022-10-13T04:52:34;101686.63;;;11.25;100.00
13732;BME280;6937;56.096;12.664;2022-10-13T04:55:00;101682.97;;;11.26;100.00
13732;BME280;6937;56.096;12.664;2022-10-13T04:57:25;101685.47;;;11.29;100.00
13732;BME280;6937;56.096;12.664;2022-10-13T04:59:51;101681.94;;;11.28;100.00
13732;BME280;6937;56.096;12.664;2022-10-13T05:02:16;101581.81;;;10.74;100.00
13732;BME280;6937;56.096;12.664;2022-10-13T05:04:42;101655.81;;;11.18;100.00
13732;BME280;6937;56.096;12.664;2022-10-13T05:07:07;101656.69;;;11.18;100.00
13732;BME280;6937;56.096;12.664;2022-10-13T05:09:33;101638.16;;;11.15;100.00
13732;BME280;6937;56.096;12.664;2022-10-13T05:11:58;101558.00;;;10.70;100.00
13732;BME280;6937;56.096;12.664;2022-10-13T05:14:23;101561.16;;;10.76;100.00
13732;BME280;6937;56.096;12.664;2022-10-13T05:16:49;101628.31;;;11.15;100.00
13732;BME280;6937;56.096;12.664;2022-10-13T05:19:14;101624.28;;;11.08;100.00
13732;BME280;6937;56.096;12.664;2022-10-13T05:21:40;101600.88;;;11.12;100.00
13732;BME280;6937;56.096;12.664;2022-10-13T05:24:06;101602.50;;;11.14;100.00
13732;BME280;6937;56.096;12.664;2022-10-13T05:26:36;101590.94;;;11.14;100.00
13732;BME280;6937;56.096;12.664;2022-10-13T05:29:02;101575.34;;;11.06;100.00
13732;BME280;6937;56.096;12.664;2022-10-13T05:31:31;101569.91;;;11.08;100.00
13732;BME280;6937;56.096;12.664;2022-10-13T05:33:57;101568.97;;;11.09;100.00
13732;BME280;6937;56.096;12.664;2022-10-13T05:36:29;101553.88;;;11.08;100.00
13732;BME280;6937;56.096;12.664;2022-10-13T05:38:56;101553.09;;;11.06;100.00
13732;BME280;6937;56.096;12.664;2022-10-13T05:41:23;101544.31;;;11.04;100.00
13732;BME280;6937;56.096;12.664;2022-10-13T05:43:52;101554.94;;;11.05;100.00
13732;BME280;6937;56.096;12.664;2022-10-13T05:46:18;101551.28;;;11.06;100.00
13732;BME280;6937;56.096;12.664;2022-10-13T05:48:43;101549.66;;;11.04;100.00
13732;BME280;6937;56.096;12.664;2022-10-13T05:51:11;101449.63;;;10.50;100.00
13732;BME280;6937;56.096;12.664;2022-10-13T05:53:40;101540.69;;;11.05;100.00
13732;BME280;6937;56.096;12.664;2022-10-13T05:56:11;101542.50;;;11.04;100.00
13732;BME280;6937;56.096;12.664;2022-10-13T05:58:43;101546.78;;;11.07;100.00
13732;BME280;6937;56.096;12.664;2022-10-13T06:01:12;101560.94;;;11.09;100.00
13732;BME280;6937;56.096;12.664;2022-10-13T06:03:40;101566.28;;;11.09;100.00
13732;BME280;6937;56.096;12.664;2022-10-13T06:06:06;101543.56;;;11.02;100.00
13732;BME280;6937;56.096;12.664;2022-10-13T06:08:32;101562.94;;;11.05;100.00
13732;BME280;6937;56.096;12.664;2022-10-13T06:10:58;101565.16;;;11.13;100.00
13732;BME280;6937;56.096;12.664;2022-10-13T06:13:23;101551.94;;;11.10;100.00
13732;BME280;6937;56.096;12.664;2022-10-13T06:15:48;101558.06;;;11.12;100.00
13732;BME280;6937;56.096;12.664;2022-10-13T06:18:14;101552.59;;;11.13;100.00
13732;BME280;6937;56.096;12.664;2022-10-13T06:20:39;101475.41;;;10.65;100.00
13732;BME280;6937;56.096;12.664;2022-10-13T06:23:05;101567.44;;;11.19;100.00
13732;BME280;6937;56.096;12.664;2022-10-13T06:25:30;101557.47;;;11.21;100.00
13732;BME280;6937;56.096;12.664;2022-10-13T06:27:56;101546.31;;;11.14;100.00
13732;BME280;6937;56.096;12.664;2022-10-13T06:30:22;101566.09;;;11.26;100.00
13732;BME280;6937;56.096;12.664;2022-10-13T06:32:47;101522.03;;;11.03;100.00
13732;BME280;6937;56.096;12.664;2022-10-13T06:35:13;101569.34;;;11.31;100.00
13732;BME280;6937;56.096;12.664;2022-10-13T06:37:39;101564.56;;;11.36;100.00
13732;BME280;6937;56.096;12.664;2022-10-13T06:40:04;101574.78;;;11.44;100.00
13732;BME280;6937;56.096;12.664;2022-10-13T06:42:30;101554.50;;;11.40;100.00
13732;BME280;6937;56.096;12.664;2022-10-13T06:44:58;101538.16;;;11.44;100.00
13732;BME280;6937;56.096;12.664;2022-10-13T06:47:23;101526.59;;;11.44;100.00
13732;BME280;6937;56.096;12.664;2022-10-13T06:49:49;101474.75;;;11.18;100.00
13732;BME280;6937;56.096;12.664;2022-10-13T06:52:14;101520.22;;;11.46;100.00
13732;BME280;6937;56.096;12.664;2022-10-13T06:54:39;101481.66;;;11.49;100.00
13732;BME280;6937;56.096;12.664;2022-10-13T06:57:05;101477.09;;;11.51;100.00
13732;BME280;6937;56.096;12.664;2022-10-13T06:59:31;101471.31;;;11.57;100.00
13732;BME280;6937;56.096;12.664;2022-10-13T07:01:56;101463.38;;;11.55;100.00
13732;BME280;6937;56.096;12.664;2022-10-13T07:04:22;101448.97;;;11.58;100.00
13732;BME280;6937;56.096;12.664;2022-10-13T07:06:48;101451.44;;;11.61;100.00
13732;BME280;6937;56.096;12.664;2022-10-13T07:09:15;101456.56;;;11.64;100.00
13732;BME280;6937;56.096;12.664;2022-10-13T07:11:43;101399.53;;;11.49;100.00
13732;BME280;6937;56.096;12.664;2022-10-13T07:14:09;101372.19;;;11.32;100.00
13732;BME280;6937;56.096;12.664;2022-10-13T07:16:35;101390.56;;;11.50;100.00
13732;BME280;6937;56.096;12.664;2022-10-13T07:19:00;101337.03;;;11.24;100.00
13732;BME280;6937;56.096;12.664;2022-10-13T07:21:26;101406.44;;;11.66;100.00
13732;BME280;6937;56.096;12.664;2022-10-13T07:23:51;101370.69;;;11.40;100.00
13732;BME280;6937;56.096;12.664;2022-10-13T07:26:17;101426.69;;;11.84;100.00
13732;BME280;6937;56.096;12.664;2022-10-13T07:28:43;101412.44;;;11.84;100.00
13732;BME280;6937;56.096;12.664;2022-10-13T07:31:12;101395.25;;;11.74;100.00
13732;BME280;6937;56.096;12.664;2022-10-13T07:33:38;101443.44;;;12.00;100.00
13732;BME280;6937;56.096;12.664;2022-10-13T07:36:04;101412.47;;;11.96;100.00
13732;BME280;6937;56.096;12.664;2022-10-13T07:38:30;101398.66;;;12.02;100.00
13732;BME280;6937;56.096;12.664;2022-10-13T07:40:59;101415.72;;;12.14;100.00
13732;BME280;6937;56.096;12.664;2022-10-13T07:43:25;101375.28;;;12.04;100.00
13732;BME280;6937;56.096;12.664;2022-10-13T07:45:51;101380.13;;;12.12;100.00
13732;BME280;6937;56.096;12.664;2022-10-13T07:48:16;101401.25;;;12.17;100.00
13732;BME280;6937;56.096;12.664;2022-10-13T07:50:41;101362.00;;;12.16;100.00
13732;BME280;6937;56.096;12.664;2022-10-13T07:53:07;101354.28;;;12.24;100.00
13732;BME280;6937;56.096;12.664;2022-10-13T07:55:32;101388.94;;;12.39;100.00
13732;BME280;6937;56.096;12.664;2022-10-13T07:58:00;101273.50;;;11.92;100.00
13732;BME280;6937;56.096;12.664;2022-10-13T08:00:26;101384.22;;;12.55;100.00
13732;BME280;6937;56.096;12.664;2022-10-13T08:02:52;101343.22;;;12.53;100.00
13732;BME280;6937;56.096;12.664;2022-10-13T08:05:17;101357.81;;;12.62;100.00
13732;BME280;6937;56.096;12.664;2022-10-13T08:07:43;101348.69;;;12.65;100.00
13732;BME280;6937;56.096;12.664;2022-10-13T08:10:08;101283.59;;;12.50;100.00
13732;BME280;6937;56.096;12.664;2022-10-13T08:12:35;101313.91;;;12.76;100.00
13732;BME280;6937;56.096;12.664;2022-10-13T08:15:01;101330.63;;;12.79;100.00
13732;BME280;6937;56.096;12.664;2022-10-13T08:17:26;101339.50;;;12.92;100.00
13732;BME280;6937;56.096;12.664;2022-10-13T08:19:52;101327.59;;;12.96;100.00
13732;BME280;6937;56.096;12.664;2022-10-13T08:22:17;101294.63;;;12.94;100.00
13732;BME280;6937;56.096;12.664;2022-10-13T08:24:43;101308.44;;;13.01;100.00
13732;BME280;6937;56.096;12.664;2022-10-13T08:27:18;101194.47;;;12.59;100.00
13732;BME280;6937;56.096;12.664;2022-10-13T08:29:44;101305.03;;;13.12;100.00
13732;BME280;6937;56.096;12.664;2022-10-13T08:32:10;101285.59;;;13.08;100.00
13732;BME280;6937;56.096;12.664;2022-10-13T08:34:36;101270.31;;;13.08;100.00
13732;BME280;6937;56.096;12.664;2022-10-13T08:37:01;101287.19;;;13.11;100.00
13732;BME280;6937;56.096;12.664;2022-10-13T08:39:27;101268.31;;;13.12;100.00
13732;BME280;6937;56.096;12.664;2022-10-13T08:41:53;101307.78;;;13.23;100.00
13732;BME280;6937;56.096;12.664;2022-10-13T08:44:39;101278.25;;;13.23;100.00
13732;BME280;6937;56.096;12.664;2022-10-13T08:49:54;101287.94;;;13.36;100.00
13732;BME280;6937;56.096;12.664;2022-10-13T08:52:25;101272.91;;;13.34;100.00
13732;BME280;6937;56.096;12.664;2022-10-13T08:54:53;101246.50;;;13.28;100.00
13732;BME280;6937;56.096;12.664;2022-10-13T08:57:19;101247.72;;;13.24;100.00
13732;BME280;6937;56.096;12.664;2022-10-13T08:59:45;101206.81;;;12.85;100.00
13732;BME280;6937;56.096;12.664;2022-10-13T09:02:23;101186.19;;;12.86;100.00
13732;BME280;6937;56.096;12.664;2022-10-13T09:04:51;101262.13;;;13.23;100.00
13732;BME280;6937;56.096;12.664;2022-10-13T09:07:23;101245.97;;;13.12;100.00
13732;BME280;6937;56.096;12.664;2022-10-13T09:09:51;101227.50;;;13.07;100.00
13732;BME280;6937;56.096;12.664;2022-10-13T09:12:17;101265.63;;;13.12;100.00
13732;BME280;6937;56.096;12.664;2022-10-13T09:15:08;101277.94;;;13.15;100.00
13732;BME280;6937;56.096;12.664;2022-10-13T09:17:35;101208.66;;;12.72;100.00
13732;BME280;6937;56.096;12.664;2022-10-13T09:22:34;101260.81;;;13.04;100.00
13732;BME280;6937;56.096;12.664;2022-10-13T09:30:31;101299.91;;;12.96;100.00
13732;BME280;6937;56.096;12.664;2022-10-13T09:35:43;101316.72;;;12.74;100.00
13732;BME280;6937;56.096;12.664;2022-10-13T09:40:36;101384.84;;;12.59;100.00
13732;BME280;6937;56.096;12.664;2022-10-13T09:43:21;101423.22;;;12.72;100.00
13732;BME280;6937;56.096;12.664;2022-10-13T09:45:48;101462.94;;;12.67;100.00
13732;BME280;6937;56.096;12.664;2022-10-13T09:48:21;101505.44;;;12.73;100.00
13732;BME280;6937;56.096;12.664;2022-10-13T09:50:51;101513.16;;;12.65;100.00
13732;BME280;6937;56.096;12.664;2022-10-13T09:53:36;101542.94;;;12.60;100.00
13732;BME280;6937;56.096;12.664;2022-10-13T09:56:23;101570.75;;;12.59;100.00
13732;BME280;6937;56.096;12.664;2022-10-13T09:59:15;101512.13;;;12.01;100.00
13732;BME280;6937;56.096;12.664;2022-10-13T10:01:46;101644.31;;;12.55;100.00
13732;BME280;6937;56.096;12.664;2022-10-13T10:04:16;101677.91;;;12.61;100.00
13732;BME280;6937;56.096;12.664;2022-10-13T10:06:44;101707.97;;;12.66;100.00
13732;BME280;6937;56.096;12.664;2022-10-13T10:09:33;101656.41;;;12.22;100.00
13732;BME280;6937;56.096;12.664;2022-10-13T10:12:02;101711.22;;;12.44;100.00
13732;BME280;6937;56.096;12.664;2022-10-13T10:14:37;101749.22;;;12.51;100.00
13732;BME280;6937;56.096;12.664;2022-10-13T10:22:54;101838.91;;;12.74;100.00
13732;BME280;6937;56.096;12.664;2022-10-13T10:25:40;101871.56;;;12.80;100.00
13732;BME280;6937;56.096;12.664;2022-10-13T10:30:49;101897.03;;;12.87;100.00
13732;BME280;6937;56.096;12.664;2022-10-13T10:33:20;101919.56;;;12.85;100.00
13732;BME280;6937;56.096;12.664;2022-10-13T10:36:31;101935.84;;;12.96;100.00
13732;BME280;6937;56.096;12.664;2022-10-13T10:38:57;101960.28;;;13.05;100.00
13732;BME280;6937;56.096;12.664;2022-10-13T10:44:01;101963.94;;;13.04;100.00
13732;BME280;6937;56.096;12.664;2022-10-13T10:46:34;101936.72;;;12.96;100.00
13732;BME280;6937;56.096;12.664;2022-10-13T10:49:09;101939.00;;;13.02;100.00
13732;BME280;6937;56.096;12.664;2022-10-13T10:51:36;101936.13;;;12.91;100.00
13732;BME280;6937;56.096;12.664;2022-10-13T10:56:41;101952.44;;;13.02;100.00
13732;BME280;6937;56.096;12.664;2022-10-13T10:59:25;101941.81;;;13.15;100.00
13732;BME280;6937;56.096;12.664;2022-10-13T11:04:45;101884.13;;;12.80;100.00
13732;BME280;6937;56.096;12.664;2022-10-13T11:15:05;101931.19;;;13.40;100.00
13732;BME280;6937;56.096;12.664;2022-10-13T11:17:38;101890.66;;;13.31;100.00
13732;BME280;6937;56.096;12.664;2022-10-13T11:25:43;101826.53;;;13.39;100.00
13732;BME280;6937;56.096;12.664;2022-10-13T11:33:50;101671.03;;;13.23;100.00
13732;BME280;6937;56.096;12.664;2022-10-13T11:36:46;101609.69;;;13.17;100.00
13732;BME280;6937;56.096;12.664;2022-10-13T11:44:36;101543.91;;;13.12;100.00
13732;BME280;6937;56.096;12.664;2022-10-13T11:47:27;101554.72;;;13.23;100.00
13732;BME280;6937;56.096;12.664;2022-10-13T11:50:06;101571.47;;;13.26;100.00
13732;BME280;6937;56.096;12.664;2022-10-13T11:58:07;101576.09;;;13.37;100.00
13732;BME280;6937;56.096;12.664;2022-10-13T12:00:33;101587.88;;;13.47;100.00
13732;BME280;6937;56.096;12.664;2022-10-13T12:02:58;101576.19;;;13.48;100.00
13732;BME280;6937;56.096;12.664;2022-10-13T12:05:26;101547.81;;;13.44;100.00
13732;BME280;6937;56.096;12.664;2022-10-13T12:07:59;101460.88;;;12.96;100.00
13732;BME280;6937;56.096;12.664;2022-10-13T12:10:32;101491.88;;;13.38;100.00
13732;BME280;6937;56.096;12.664;2022-10-13T12:12:58;101565.34;;;13.49;100.00
13732;BME280;6937;56.096;12.664;2022-10-13T12:15:42;101507.22;;;13.36;100.00
13732;BME280;6937;56.096;12.664;2022-10-13T12:18:31;101438.88;;;13.16;100.00
13732;BME280;6937;56.096;12.664;2022-10-13T12:21:07;101524.66;;;13.30;100.00
13732;BME280;6937;56.096;12.664;2022-10-13T12:23:33;101421.84;;;12.79;100.00
13732;BME280;6937;56.096;12.664;2022-10-13T12:26:00;101477.84;;;13.22;100.00
13732;BME280;6937;56.096;12.664;2022-10-13T12:28:43;101522.06;;;13.29;100.00
13732;BME280;6937;56.096;12.664;2022-10-13T12:31:40;101552.56;;;13.40;100.00
13732;BME280;6937;56.096;12.664;2022-10-13T12:36:51;101423.00;;;13.00;100.00
13732;BME280;6937;56.096;12.664;2022-10-13T12:39:18;101493.94;;;13.22;100.00
13732;BME280;6937;56.096;12.664;2022-10-13T12:41:45;101488.88;;;13.30;100.00
13732;BME280;6937;56.096;12.664;2022-10-13T12:44:17;101513.56;;;13.35;100.00
13732;BME280;6937;56.096;12.664;2022-10-13T12:47:03;101524.59;;;13.43;100.00
13732;BME280;6937;56.096;12.664;2022-10-13T12:49:31;101509.75;;;13.50;100.00
13732;BME280;6937;56.096;12.664;2022-10-13T12:52:14;101509.56;;;13.53;100.00
13732;BME280;6937;56.096;12.664;2022-10-13T12:54:51;101444.97;;;13.31;100.00
13732;BME280;6937;56.096;12.664;2022-10-13T12:57:37;101444.63;;;13.35;100.00
13732;BME280;6937;56.096;12.664;2022-10-13T13:00:24;101402.41;;;13.37;100.00
13732;BME280;6937;56.096;12.664;2022-10-13T13:02:54;101427.53;;;13.36;100.00
13732;BME280;6937;56.096;12.664;2022-10-13T13:05:38;101400.53;;;13.27;100.00
13732;BME280;6937;56.096;12.664;2022-10-13T13:08:21;101363.72;;;13.16;100.00
13732;BME280;6937;56.096;12.664;2022-10-13T13:11:02;101356.50;;;13.17;100.00
13732;BME280;6937;56.096;12.664;2022-10-13T13:13:28;101427.78;;;13.33;100.00
13732;BME280;6937;56.096;12.664;2022-10-13T13:16:15;101430.84;;;13.40;100.00
13732;BME280;6937;56.096;12.664;2022-10-13T13:18:43;101416.91;;;13.35;100.00
13732;BME280;6937;56.096;12.664;2022-10-13T13:21:11;101343.22;;;13.02;100.00
13732;BME280;6937;56.096;12.664;2022-10-13T13:23:37;101373.88;;;13.24;100.00
13732;BME280;6937;56.096;12.664;2022-10-13T13:28:30;101457.84;;;13.62;100.00
13732;BME280;6937;56.096;12.664;2022-10-13T13:30:56;101372.03;;;13.37;100.00
13732;BME280;6937;56.096;12.664;2022-10-13T13:33:22;101376.97;;;13.54;100.00
13732;BME280;6937;56.096;12.664;2022-10-13T13:35:48;101373.56;;;13.52;100.00
13732;BME280;6937;56.096;12.664;2022-10-13T13:38:13;101345.00;;;13.51;100.00
13732;BME280;6937;56.096;12.664;2022-10-13T13:40:39;101349.63;;;13.49;100.00
13732;BME280;6937;56.096;12.664;2022-10-13T13:43:04;101367.28;;;13.64;100.00
13732;BME280;6937;56.096;12.664;2022-10-13T13:45:30;101309.31;;;13.38;100.00
13732;BME280;6937;56.096;12.664;2022-10-13T13:47:55;101324.97;;;13.55;100.00
13732;BME280;6937;56.096;12.664;2022-10-13T13:50:23;101330.97;;;13.59;100.00
13732;BME280;6937;56.096;12.664;2022-10-13T13:52:49;101348.47;;;13.64;100.00
13732;BME280;6937;56.096;12.664;2022-10-13T13:55:15;101353.25;;;13.72;100.00
13732;BME280;6937;56.096;12.664;2022-10-13T13:57:41;101323.91;;;13.69;100.00
13732;BME280;6937;56.096;12.664;2022-10-13T14:00:07;101337.28;;;13.81;100.00
13732;BME280;6937;56.096;12.664;2022-10-13T14:02:33;101299.88;;;13.67;100.00
13732;BME280;6937;56.096;12.664;2022-10-13T14:04:58;101285.94;;;13.62;100.00
13732;BME280;6937;56.096;12.664;2022-10-13T14:07:23;101194.84;;;13.13;100.00
13732;BME280;6937;56.096;12.664;2022-10-13T14:09:49;101282.81;;;13.68;100.00
13732;BME280;6937;56.096;12.664;2022-10-13T14:12:14;101291.59;;;13.70;100.00
13732;BME280;6937;56.096;12.664;2022-10-13T14:14:40;101270.06;;;13.59;100.00
13732;BME280;6937;56.096;12.664;2022-10-13T14:17:05;101255.53;;;13.62;100.00
13732;BME280;6937;56.096;12.664;2022-10-13T14:19:31;101243.56;;;13.54;100.00
13732;BME280;6937;56.096;12.664;2022-10-13T14:21:57;101170.69;;;13.13;100.00